createdAt,value
2023-01-15T00:01:49.414Z,2.18
2023-01-15T00:04:17.186Z,2.39
2023-01-15T00:06:44.484Z,2.50
2023-01-15T00:09:16.017Z,2.52
2023-01-15T00:11:43.210Z,2.48
2023-01-15T00:14:10.563Z,2.37
2023-01-15T00:16:37.824Z,2.23
2023-01-15T00:19:05.063Z,2.28
2023-01-15T00:21:32.296Z,2.27
2023-01-15T00:23:59.706Z,2.32
2023-01-15T00:26:30.884Z,2.33
2023-01-15T00:28:58.072Z,2.47
2023-01-15T00:31:25.527Z,2.34
2023-01-15T00:33:52.865Z,2.44
2023-01-15T00:36:20.162Z,2.36
2023-01-15T00:38:47.344Z,2.61
2023-01-15T00:41:14.664Z,2.51
2023-01-15T00:43:43.535Z,2.35
2023-01-15T00:46:10.671Z,2.41
2023-01-15T00:48:38.307Z,2.42
2023-01-15T00:51:06.483Z,2.43
2023-01-15T00:53:34.383Z,2.38
2023-01-15T00:56:01.485Z,2.41
2023-01-15T00:58:28.890Z,2.33
2023-01-15T01:00:58.782Z,2.18
2023-01-15T01:03:26.147Z,2.22
2023-01-15T01:05:53.500Z,2.24
2023-01-15T01:08:20.775Z,2.18
2023-01-15T01:10:47.866Z,2.12
2023-01-15T01:13:15.008Z,2.00
2023-01-15T01:15:42.146Z,2.00
2023-01-15T01:18:10.687Z,1.90
2023-01-15T01:20:38.361Z,1.88
2023-01-15T01:23:05.690Z,1.72
2023-01-15T01:25:32.811Z,1.68
2023-01-15T01:28:00.036Z,1.83
2023-01-15T01:30:27.254Z,1.64
2023-01-15T01:32:54.491Z,1.59
2023-01-15T01:35:23.129Z,1.78
2023-01-15T01:37:51.125Z,1.68
2023-01-15T01:40:19.161Z,1.61
2023-01-15T01:42:46.367Z,1.53
2023-01-15T01:45:22.233Z,1.40
2023-01-15T01:47:49.728Z,1.83
2023-01-15T01:50:17.346Z,1.66
2023-01-15T01:52:54.366Z,1.39
2023-01-15T01:55:25.247Z,1.45
2023-01-15T01:57:59.207Z,1.35
2023-01-15T02:00:26.948Z,1.22
2023-01-15T02:02:55.100Z,1.22
2023-01-15T02:05:30.934Z,1.30
2023-01-15T02:08:01.091Z,1.31
2023-01-15T02:10:29.297Z,1.45
2023-01-15T02:13:03.931Z,1.44
2023-01-15T02:15:36.913Z,1.37
2023-01-15T02:18:16.514Z,1.44
2023-01-15T02:20:50.887Z,1.37
2023-01-15T02:23:49.182Z,1.31
2023-01-15T02:26:53.968Z,1.30
2023-01-15T02:29:32.364Z,1.17
2023-01-15T02:32:07.389Z,1.20
2023-01-15T02:34:40.454Z,1.44
2023-01-15T02:37:14.710Z,1.13
2023-01-15T02:39:46.224Z,1.10
2023-01-15T02:42:16.391Z,1.17
2023-01-15T02:44:51.628Z,1.01
2023-01-15T02:47:25.126Z,1.14
2023-01-15T02:49:57.802Z,1.47
2023-01-15T02:52:30.145Z,2.08
2023-01-15T02:55:04.385Z,1.50
2023-01-15T02:57:37.424Z,1.17
2023-01-15T03:00:12.403Z,1.06
2023-01-15T03:02:46.981Z,1.01
2023-01-15T03:05:21.357Z,1.01
2023-01-15T03:07:53.222Z,1.20
2023-01-15T03:10:30.419Z,1.14
2023-01-15T03:13:02.641Z,1.37
2023-01-15T03:15:43.901Z,1.31
2023-01-15T03:18:15.467Z,1.24
2023-01-15T03:20:52.223Z,1.20
2023-01-15T03:23:24.188Z,1.51
2023-01-15T03:25:51.886Z,1.84
2023-01-15T03:28:25.735Z,1.05
2023-01-15T03:30:54.687Z,1.32
2023-01-15T03:33:22.101Z,1.24
2023-01-15T03:35:51.743Z,2.08
2023-01-15T03:38:23.431Z,1.68
2023-01-15T03:41:00.795Z,1.83
2023-01-15T03:43:42.177Z,3.33
2023-01-15T03:46:20.761Z,2.01
2023-01-15T03:48:59.859Z,2.20
2023-01-15T03:51:38.517Z,1.51
2023-01-15T03:54:14.574Z,1.00
2023-01-15T03:56:49.993Z,1.24
2023-01-15T03:59:23.603Z,1.14
2023-01-15T04:01:55.074Z,1.10
2023-01-15T04:04:24.842Z,0.99
2023-01-15T04:06:55.175Z,1.24
2023-01-15T04:09:24.033Z,2.59
2023-01-15T04:11:51.253Z,2.07
2023-01-15T04:14:18.467Z,1.41
2023-01-15T04:16:45.648Z,1.27
2023-01-15T04:19:14.287Z,1.48
2023-01-15T04:21:41.529Z,1.71
2023-01-15T04:24:08.799Z,1.23
2023-01-15T04:26:35.911Z,1.59
2023-01-15T04:29:03.254Z,1.36
2023-01-15T04:31:30.382Z,1.65
2023-01-15T04:33:57.551Z,1.87
2023-01-15T04:36:26.150Z,1.36
2023-01-15T04:38:53.307Z,1.23
2023-01-15T04:41:20.574Z,1.41
2023-01-15T04:43:47.745Z,1.30
2023-01-15T04:46:15.032Z,1.27
2023-01-15T04:48:42.213Z,1.02
2023-01-15T04:51:09.327Z,1.15
2023-01-15T04:53:37.826Z,1.36
2023-01-15T04:56:06.095Z,1.25
2023-01-15T04:58:34.536Z,1.66
2023-01-15T05:01:02.722Z,1.55
2023-01-15T05:03:30.413Z,1.41
2023-01-15T05:06:02.131Z,1.16
2023-01-15T05:08:29.507Z,1.17
2023-01-15T05:11:01.987Z,1.13
2023-01-15T05:13:29.266Z,1.13
2023-01-15T05:15:56.504Z,1.33
2023-01-15T05:18:23.684Z,1.26
2023-01-15T05:20:50.869Z,1.18
2023-01-15T05:23:17.973Z,1.01
2023-01-15T05:25:45.058Z,1.02
2023-01-15T05:28:13.677Z,1.12
2023-01-15T05:30:40.728Z,1.05
2023-01-15T05:33:07.858Z,1.10
2023-01-15T05:35:34.977Z,1.00
2023-01-15T05:38:02.090Z,1.06
2023-01-15T05:40:29.275Z,0.99
2023-01-15T05:42:56.475Z,1.05
2023-01-15T05:45:25.076Z,0.92
2023-01-15T05:47:53.749Z,1.14
2023-01-15T05:50:20.922Z,1.07
2023-01-15T05:52:48.027Z,1.17
2023-01-15T05:55:15.203Z,0.83
2023-01-15T05:57:42.333Z,1.01
2023-01-15T06:00:10.890Z,1.02
2023-01-15T06:02:39.532Z,0.98
2023-01-15T06:05:07.789Z,0.93
2023-01-15T06:07:34.978Z,1.11
2023-01-15T06:10:02.122Z,1.16
2023-01-15T06:12:29.273Z,1.20
2023-01-15T06:14:56.321Z,1.16
2023-01-15T06:17:23.515Z,1.16
2023-01-15T06:19:52.066Z,0.99
2023-01-15T06:22:19.194Z,0.95
2023-01-15T06:24:46.314Z,1.17
2023-01-15T06:27:13.473Z,1.00
2023-01-15T06:29:40.530Z,1.01
2023-01-15T06:32:07.648Z,0.99
2023-01-15T06:34:34.806Z,1.08
2023-01-15T06:37:03.621Z,1.22
2023-01-15T06:39:30.714Z,1.14
2023-01-15T06:41:57.786Z,1.06
2023-01-15T06:44:25.752Z,1.03
2023-01-15T06:46:53.478Z,1.10
2023-01-15T06:49:20.653Z,1.29
2023-01-15T06:51:47.747Z,1.08
2023-01-15T06:54:16.266Z,0.89
2023-01-15T06:56:43.306Z,0.86
2023-01-15T06:59:12.517Z,1.02
2023-01-15T07:01:40.081Z,1.05
2023-01-15T07:04:07.400Z,1.12
2023-01-15T07:06:34.847Z,1.14
2023-01-15T07:09:02.244Z,1.09
2023-01-15T07:11:31.626Z,1.24
2023-01-15T07:13:58.767Z,1.35
2023-01-15T07:16:25.872Z,1.28
2023-01-15T07:18:54.387Z,1.38
2023-01-15T07:21:21.766Z,1.35
2023-01-15T07:23:49.250Z,1.37
2023-01-15T07:26:16.485Z,1.34
2023-01-15T07:28:45.236Z,1.41
2023-01-15T07:31:12.467Z,1.39
2023-01-15T07:33:39.686Z,1.38
2023-01-15T07:36:07.393Z,1.31
2023-01-15T07:38:34.529Z,1.22
2023-01-15T07:41:01.816Z,1.39
2023-01-15T07:43:28.898Z,1.26
2023-01-15T07:45:57.627Z,1.55
2023-01-15T07:48:26.689Z,1.35
2023-01-15T07:50:53.867Z,1.36
2023-01-15T07:53:21.248Z,1.39
2023-01-15T07:55:48.841Z,1.60
2023-01-15T07:58:15.985Z,1.49
2023-01-15T08:00:43.203Z,1.40
2023-01-15T08:03:11.811Z,1.43
2023-01-15T08:05:39.036Z,1.48
2023-01-15T08:08:06.184Z,1.64
2023-01-15T08:10:33.367Z,1.72
2023-01-15T08:13:00.584Z,1.60
2023-01-15T08:15:33.985Z,1.44
2023-01-15T08:18:01.221Z,1.72
2023-01-15T08:20:29.847Z,1.58
2023-01-15T08:22:56.976Z,1.55
2023-01-15T08:25:25.824Z,1.73
2023-01-15T08:27:54.174Z,2.01
2023-01-15T08:30:24.710Z,1.83
2023-01-15T08:32:52.312Z,1.89
2023-01-15T08:35:19.648Z,1.78
2023-01-15T08:37:48.231Z,1.80
2023-01-15T08:40:15.435Z,2.03
2023-01-15T08:42:42.597Z,2.53
2023-01-15T08:45:11.133Z,2.49
2023-01-15T08:47:38.321Z,2.66
2023-01-15T08:50:06.581Z,2.07
2023-01-15T08:52:33.930Z,1.96
2023-01-15T08:55:02.582Z,1.76
2023-01-15T08:57:29.669Z,2.05
2023-01-15T08:59:56.879Z,1.33
2023-01-15T09:02:24.097Z,1.48
2023-01-15T09:04:51.279Z,1.30
2023-01-15T09:07:18.474Z,1.06
2023-01-15T09:09:45.573Z,1.82
2023-01-15T09:12:14.281Z,1.69
2023-01-15T09:14:58.463Z,1.55
2023-01-15T09:17:28.755Z,1.63
2023-01-15T09:19:56.060Z,1.52
2023-01-15T09:22:23.364Z,2.35
2023-01-15T09:24:50.511Z,1.99
2023-01-15T09:27:19.043Z,1.67
2023-01-15T09:29:46.568Z,1.32
2023-01-15T09:32:13.688Z,1.18
2023-01-15T09:34:40.958Z,1.13
2023-01-15T09:37:08.185Z,1.83
2023-01-15T09:39:35.242Z,1.13
2023-01-15T09:42:24.061Z,1.12
2023-01-15T09:45:17.182Z,1.02
2023-01-15T09:48:08.674Z,0.81
2023-01-15T09:50:56.029Z,0.86
2023-01-15T09:53:42.580Z,1.10
2023-01-15T09:56:19.991Z,1.47
2023-01-15T09:58:50.020Z,1.79
2023-01-15T10:01:23.219Z,1.33
2023-01-15T10:03:59.756Z,1.15
2023-01-15T10:06:33.143Z,1.02
2023-01-15T10:09:10.083Z,1.28
2023-01-15T10:11:44.463Z,0.71
2023-01-15T10:14:27.011Z,0.92
2023-01-15T10:16:54.145Z,0.61
2023-01-15T10:19:23.431Z,0.55
2023-01-15T10:21:59.965Z,0.53
2023-01-15T10:24:38.507Z,0.43
2023-01-15T10:27:18.324Z,0.61
2023-01-15T10:29:54.625Z,1.02
2023-01-15T10:32:40.828Z,1.05
2023-01-15T10:35:35.482Z,1.04
2023-01-15T10:38:14.445Z,0.55
2023-01-15T10:41:02.862Z,0.77
2023-01-15T10:43:45.030Z,0.71
2023-01-15T10:46:16.322Z,0.78
2023-01-15T10:48:47.687Z,0.63
2023-01-15T10:51:21.256Z,0.62
2023-01-15T10:53:55.051Z,0.74
2023-01-15T10:56:34.038Z,0.74
2023-01-15T10:59:13.169Z,0.72
2023-01-15T11:01:41.950Z,0.84
2023-01-15T11:04:10.547Z,0.77
2023-01-15T11:06:37.752Z,0.79
2023-01-15T11:09:10.872Z,0.55
2023-01-15T11:11:43.828Z,0.50
2023-01-15T11:14:11.266Z,0.46
2023-01-15T11:16:44.265Z,0.58
2023-01-15T11:19:25.872Z,0.40
2023-01-15T11:21:54.896Z,0.54
2023-01-15T11:24:22.115Z,0.47
2023-01-15T11:26:53.136Z,0.35
2023-01-15T11:29:31.295Z,0.63
2023-01-15T11:32:00.274Z,0.52
2023-01-15T11:34:27.494Z,0.48
2023-01-15T11:37:06.189Z,0.57
2023-01-15T11:39:33.653Z,0.59
2023-01-15T11:42:03.250Z,0.78
2023-01-15T11:44:30.408Z,0.55
2023-01-15T11:46:59.294Z,0.74
2023-01-15T11:49:26.391Z,0.74
2023-01-15T11:51:55.567Z,0.76
2023-01-15T11:54:23.160Z,0.89
2023-01-15T11:56:50.574Z,0.59
2023-01-15T11:59:20.151Z,0.60
2023-01-15T12:01:54.879Z,0.45
2023-01-15T12:04:37.230Z,0.58
2023-01-15T12:07:11.838Z,0.63
2023-01-15T12:10:17.982Z,0.60
2023-01-15T12:13:04.074Z,0.80
2023-01-15T12:15:44.565Z,0.76
2023-01-15T12:18:48.556Z,0.53
2023-01-15T12:21:39.326Z,0.63
2023-01-15T12:24:50.495Z,0.57
2023-01-15T12:27:36.745Z,0.68
2023-01-15T12:30:21.779Z,0.66
2023-01-15T12:32:56.754Z,0.59
2023-01-15T12:35:30.462Z,0.87
2023-01-15T12:38:11.884Z,1.01
2023-01-15T12:40:49.093Z,0.88
2023-01-15T12:43:23.971Z,0.92
2023-01-15T12:45:55.373Z,0.75
2023-01-15T12:48:35.171Z,0.77
2023-01-15T12:51:06.627Z,0.69
2023-01-15T12:53:44.193Z,0.73
2023-01-15T12:56:22.194Z,0.68
2023-01-15T12:58:55.792Z,1.01
2023-01-15T13:01:34.476Z,0.83
2023-01-15T13:04:15.513Z,0.82
2023-01-15T13:06:50.102Z,0.79
2023-01-15T13:09:32.312Z,0.86
2023-01-15T13:11:59.614Z,0.74
2023-01-15T13:14:26.823Z,0.89
2023-01-15T13:17:02.396Z,0.94
2023-01-15T13:19:42.056Z,0.86
2023-01-15T13:22:18.872Z,0.88
2023-01-15T13:25:07.795Z,0.66
2023-01-15T13:27:54.408Z,0.88
2023-01-15T13:30:47.003Z,0.71
2023-01-15T13:33:29.360Z,1.31
2023-01-15T13:36:06.733Z,0.56
2023-01-15T13:38:43.040Z,0.56
2023-01-15T13:41:20.026Z,0.47
2023-01-15T13:43:47.352Z,0.57
2023-01-15T13:46:21.684Z,0.69
2023-01-15T13:48:51.759Z,0.46
2023-01-15T13:51:29.650Z,0.50
2023-01-15T13:54:00.804Z,0.88
2023-01-15T13:56:31.525Z,1.03
2023-01-15T13:59:00.978Z,1.26
2023-01-15T14:01:35.221Z,1.30
2023-01-15T14:04:14.671Z,1.15
2023-01-15T14:06:45.534Z,2.15
2023-01-15T14:09:14.675Z,1.62
2023-01-15T14:12:05.156Z,1.39
2023-01-15T14:14:58.050Z,1.16
2023-01-15T14:18:01.254Z,1.17
2023-01-15T14:20:45.983Z,2.11
2023-01-15T14:23:31.238Z,1.64
2023-01-15T14:26:17.873Z,0.98
2023-01-15T14:29:02.658Z,0.82
2023-01-15T14:31:49.619Z,2.15
2023-01-15T14:34:22.859Z,2.24
2023-01-15T14:36:54.675Z,1.02
2023-01-15T14:39:41.277Z,1.08
2023-01-15T14:42:14.674Z,1.79
2023-01-15T14:44:45.629Z,1.98
2023-01-15T14:47:28.655Z,1.94
2023-01-15T14:50:23.774Z,1.70
2023-01-15T14:52:54.079Z,1.22
2023-01-15T14:55:23.076Z,0.99
2023-01-15T14:57:58.759Z,1.02
2023-01-15T15:00:35.132Z,1.44
2023-01-15T15:03:13.173Z,1.43
2023-01-15T15:05:43.321Z,1.55
2023-01-15T15:08:15.011Z,1.67
2023-01-15T15:10:46.134Z,1.58
2023-01-15T15:13:23.288Z,1.14
2023-01-15T15:16:04.086Z,1.49
2023-01-15T15:18:37.929Z,1.93
2023-01-15T15:21:10.368Z,3.92
2023-01-15T15:23:43.957Z,2.14
2023-01-15T15:26:24.871Z,1.45
2023-01-15T15:28:59.991Z,2.03
2023-01-15T15:31:35.530Z,1.93
2023-01-15T15:34:07.607Z,1.04
2023-01-15T15:36:39.417Z,1.25
2023-01-15T15:39:19.710Z,1.24
2023-01-15T15:41:51.645Z,1.09
2023-01-15T15:44:32.514Z,0.96
2023-01-15T15:47:18.307Z,0.96
2023-01-15T15:49:45.510Z,0.94
2023-01-15T15:52:21.272Z,0.92
2023-01-15T15:54:59.104Z,1.09
2023-01-15T15:57:30.385Z,1.15
2023-01-15T15:59:57.762Z,1.05
2023-01-15T16:02:31.715Z,1.84
2023-01-15T16:05:02.066Z,1.92
2023-01-15T16:07:31.447Z,1.91
2023-01-15T16:10:03.172Z,1.46
2023-01-15T16:12:34.270Z,1.23
2023-01-15T16:15:03.712Z,1.47
2023-01-15T16:17:34.125Z,1.75
2023-01-15T16:20:02.240Z,1.95
2023-01-15T16:22:30.786Z,1.91
2023-01-15T16:24:58.989Z,1.53
2023-01-15T16:27:32.607Z,2.76
2023-01-15T16:30:00.750Z,1.81
2023-01-15T16:32:33.309Z,1.47
2023-01-15T16:35:06.862Z,1.91
2023-01-15T16:37:34.908Z,2.68
2023-01-15T16:40:05.340Z,1.37
2023-01-15T16:42:36.977Z,1.51
2023-01-15T16:45:18.153Z,1.47
2023-01-15T16:48:02.600Z,1.56
2023-01-15T16:50:31.768Z,2.02
2023-01-15T16:52:59.944Z,2.27
2023-01-15T16:55:42.270Z,2.40
2023-01-15T16:58:22.562Z,2.08
2023-01-15T17:00:53.699Z,2.58
2023-01-15T17:03:25.186Z,3.00
2023-01-15T17:05:56.166Z,3.11
2023-01-15T17:08:35.202Z,2.86
2023-01-15T17:11:04.651Z,3.13
2023-01-15T17:13:35.372Z,3.68
2023-01-15T17:16:06.618Z,5.69
2023-01-15T17:18:35.414Z,5.04
2023-01-15T17:21:02.749Z,3.74
2023-01-15T17:23:35.011Z,3.18
2023-01-15T17:26:04.467Z,4.08
2023-01-15T17:28:31.861Z,4.71
2023-01-15T17:31:01.725Z,3.25
2023-01-15T17:33:28.931Z,2.87
2023-01-15T17:35:57.548Z,3.12
2023-01-15T17:38:24.730Z,3.39
2023-01-15T17:40:52.069Z,4.49
2023-01-15T17:43:20.486Z,4.47
2023-01-15T17:45:48.147Z,3.29
2023-01-15T17:48:15.347Z,3.80
2023-01-15T17:50:42.387Z,3.59
2023-01-15T17:53:11.060Z,2.64
2023-01-15T17:55:38.211Z,2.91
2023-01-15T17:58:05.410Z,2.70
2023-01-15T18:00:33.030Z,2.66
2023-01-15T18:03:00.889Z,3.08
2023-01-15T18:05:30.208Z,2.89
2023-01-15T18:08:00.749Z,3.00
2023-01-15T18:10:29.589Z,2.79
2023-01-15T18:12:56.699Z,2.46
2023-01-15T18:15:23.890Z,2.19
2023-01-15T18:17:51.006Z,2.46
2023-01-15T18:20:18.205Z,2.23
2023-01-15T18:22:45.404Z,2.57
2023-01-15T18:25:13.106Z,2.47
2023-01-15T18:27:41.747Z,2.43
2023-01-15T18:30:11.149Z,2.46
2023-01-15T18:32:38.247Z,2.44
2023-01-15T18:35:06.090Z,2.77
2023-01-15T18:37:34.767Z,2.70
2023-01-15T18:40:02.008Z,2.63
2023-01-15T18:42:29.129Z,2.56
2023-01-15T18:44:58.944Z,2.78
2023-01-15T18:47:27.011Z,2.37
2023-01-15T18:49:54.163Z,2.10
2023-01-15T18:52:21.528Z,2.45
2023-01-15T18:54:48.586Z,2.83
2023-01-15T18:57:15.772Z,3.23
2023-01-15T18:59:42.978Z,3.98
2023-01-15T19:02:12.017Z,4.13
2023-01-15T19:04:39.150Z,3.60
2023-01-15T19:07:06.647Z,3.27
2023-01-15T19:09:35.186Z,3.55
2023-01-15T19:12:03.086Z,3.75
2023-01-15T19:14:30.767Z,3.79
2023-01-15T19:16:57.906Z,7.17
2023-01-15T19:19:26.788Z,5.54
2023-01-15T19:21:54.807Z,3.99
2023-01-15T19:24:22.165Z,4.23
2023-01-15T19:26:50.226Z,4.24
2023-01-15T19:29:17.305Z,4.35
2023-01-15T19:31:44.737Z,4.57
2023-01-15T19:34:32.586Z,4.25
2023-01-15T19:37:00.784Z,4.74
2023-01-15T19:39:29.547Z,4.23
2023-01-15T19:41:59.227Z,4.09
2023-01-15T19:44:26.785Z,4.81
2023-01-15T19:46:55.780Z,4.66
2023-01-15T19:49:23.589Z,4.58
2023-01-15T19:51:50.748Z,4.61
2023-01-15T19:54:19.430Z,4.10
2023-01-15T19:56:46.630Z,4.98
2023-01-15T19:59:14.015Z,4.98
2023-01-15T20:01:41.347Z,4.83
2023-01-15T20:04:09.432Z,4.40
2023-01-15T20:06:36.711Z,4.32
2023-01-15T20:09:04.989Z,4.10
2023-01-15T20:11:33.966Z,4.22
2023-01-15T20:14:01.335Z,4.34
2023-01-15T20:16:28.624Z,4.40
2023-01-15T20:18:56.094Z,4.07
2023-01-15T20:21:23.610Z,4.10
2023-01-15T20:23:50.947Z,4.28
2023-01-15T20:26:18.120Z,4.29
2023-01-15T20:28:46.817Z,3.73
2023-01-15T20:31:16.008Z,3.37
2023-01-15T20:33:43.567Z,3.15
2023-01-15T20:36:10.807Z,3.09
2023-01-15T20:38:42.575Z,2.76
2023-01-15T20:41:11.773Z,2.74
2023-01-15T20:43:39.064Z,2.62
2023-01-15T20:46:13.428Z,2.67
2023-01-15T20:48:40.678Z,1.63
2023-01-15T20:51:12.029Z,2.12
2023-01-15T20:53:39.619Z,2.40
2023-01-15T20:56:14.789Z,2.21
2023-01-15T20:58:42.540Z,2.20
2023-01-15T21:01:11.417Z,3.14
2023-01-15T21:03:40.093Z,3.00
2023-01-15T21:06:08.768Z,2.95
2023-01-15T21:08:36.741Z,3.21
2023-01-15T21:11:04.930Z,3.13
2023-01-15T21:13:32.431Z,2.97
2023-01-15T21:16:02.186Z,3.02
2023-01-15T21:18:33.228Z,2.71
2023-01-15T21:21:01.501Z,2.73
2023-01-15T21:23:29.107Z,2.85
2023-01-15T21:26:01.065Z,3.05
2023-01-15T21:28:29.808Z,2.91
2023-01-15T21:30:58.772Z,3.14
2023-01-15T21:33:25.929Z,3.09
2023-01-15T21:35:55.026Z,3.52
2023-01-15T21:38:22.208Z,3.63
2023-01-15T21:40:49.408Z,3.08
2023-01-15T21:43:16.605Z,3.06
2023-01-15T21:45:44.257Z,3.27
2023-01-15T21:48:11.467Z,3.50
2023-01-15T21:50:39.737Z,3.21
2023-01-15T21:53:09.751Z,3.16
2023-01-15T21:55:37.526Z,3.43
2023-01-15T21:58:04.908Z,3.34
2023-01-15T22:00:32.486Z,3.31
2023-01-15T22:03:03.615Z,3.25
2023-01-15T22:05:31.655Z,3.30
2023-01-15T22:07:58.824Z,3.18
2023-01-15T22:10:27.808Z,3.34
2023-01-15T22:12:55.127Z,3.62
2023-01-15T22:15:22.378Z,3.45
2023-01-15T22:17:51.192Z,3.52
2023-01-15T22:20:18.467Z,3.56
2023-01-15T22:22:45.649Z,3.72
2023-01-15T22:25:12.798Z,3.26
2023-01-15T22:27:41.429Z,3.41
2023-01-15T22:30:10.438Z,3.44
2023-01-15T22:32:38.168Z,3.36
2023-01-15T22:35:06.949Z,3.46
2023-01-15T22:37:34.166Z,3.56
2023-01-15T22:40:01.340Z,3.50
2023-01-15T22:42:28.572Z,3.84
2023-01-15T22:44:57.352Z,3.52
2023-01-15T22:47:24.506Z,4.02
2023-01-15T22:49:51.668Z,3.94
2023-01-15T22:52:19.193Z,3.45
2023-01-15T22:54:47.427Z,3.60
2023-01-15T22:57:14.607Z,3.53
2023-01-15T22:59:42.811Z,3.61
2023-01-15T23:02:13.322Z,3.76
2023-01-15T23:04:40.646Z,3.86
2023-01-15T23:07:07.848Z,3.96
2023-01-15T23:09:35.608Z,4.30
2023-01-15T23:12:02.749Z,4.19
2023-01-15T23:14:29.892Z,4.25
2023-01-15T23:16:57.106Z,4.21
2023-01-15T23:19:25.786Z,4.20
2023-01-15T23:21:52.925Z,3.77
2023-01-15T23:24:20.134Z,3.97
2023-01-15T23:26:47.303Z,3.79
2023-01-15T23:29:14.346Z,4.14
2023-01-15T23:31:41.609Z,3.85
2023-01-15T23:34:08.810Z,3.78
2023-01-15T23:36:37.351Z,4.00
2023-01-15T23:39:04.667Z,4.10
2023-01-15T23:41:31.871Z,3.70
2023-01-15T23:43:58.995Z,3.69
2023-01-15T23:46:27.695Z,3.55
2023-01-15T23:48:54.979Z,3.37
2023-01-15T23:51:22.079Z,3.52
2023-01-15T23:53:50.625Z,3.68
2023-01-15T23:56:18.216Z,3.22
2023-01-15T23:58:45.335Z,3.23
